Time;durP1;ratioP1;P1;durP2;ratioP2;P2;SDS_P1;SDS_P2;PMS_P1;PMS_P2;Temp;Humidity;BMP_temperature;BMP_pressure;BME280_temperature;BME280_humidity;BME280_pressure;Samples;Min_cycle;Max_cycle;Signal;HPM_P1;HPM_P2
2022/01/22 00:00:21;;;;;;;19.05;2.45;;;22.30;32.70;;;;;;5066890;28;20172;-63
2022/01/22 00:02:49;;;;;;;12.68;2.20;;;22.20;32.30;;;;;;5066521;28;20146;-65
2022/01/22 00:05:17;;;;;;;12.30;2.67;;;22.10;32.50;;;;;;5064164;28;20072;-64
2022/01/22 00:07:43;;;;;;;13.25;2.28;;;22.00;32.60;;;;;;5069122;28;20089;-64
2022/01/22 00:10:16;;;;;;;11.32;2.33;;;21.90;33.10;;;;;;5070418;28;20437;-64
2022/01/22 00:15:22;;;;;;;8.13;3.13;;;21.80;33.40;;;;;;5070835;28;20075;-63
2022/01/22 00:17:49;;;;;;;8.35;3.50;;;21.70;33.80;;;;;;5064166;28;20150;-64
2022/01/22 00:20:19;;;;;;;12.40;3.05;;;21.70;33.70;;;;;;5065009;28;20077;-64
2022/01/22 00:22:46;;;;;;;12.10;2.60;;;21.60;32.90;;;;;;5070791;28;20164;-62
2022/01/22 00:25:15;;;;;;;9.55;2.30;;;21.50;33.70;;;;;;5070946;28;20081;-64
2022/01/22 00:27:44;;;;;;;12.95;2.30;;;21.40;35.30;;;;;;5069329;28;20085;-62
2022/01/22 00:30:14;;;;;;;26.58;2.40;;;21.30;35.40;;;;;;5069061;28;20407;-61
2022/01/22 00:32:40;;;;;;;4.53;1.70;;;21.30;35.70;;;;;;5068356;28;20566;-64
2022/01/22 00:35:08;;;;;;;7.95;2.03;;;21.20;35.60;;;;;;5071511;28;20199;-64
2022/01/22 00:37:37;;;;;;;7.32;1.95;;;21.20;35.60;;;;;;5070783;28;20073;-65
2022/01/22 00:40:04;;;;;;;14.68;2.25;;;21.10;35.70;;;;;;5066882;28;20420;-64
2022/01/22 00:42:33;;;;;;;12.68;1.85;;;21.00;35.60;;;;;;5070400;28;20072;-61
2022/01/22 00:45:00;;;;;;;13.70;2.25;;;20.90;35.50;;;;;;5070697;28;20485;-62
2022/01/22 00:47:26;;;;;;;14.73;2.40;;;20.90;35.60;;;;;;5069869;28;20093;-63
2022/01/22 00:49:53;;;;;;;17.38;2.20;;;20.70;34.80;;;;;;5070268;28;20074;-64
2022/01/22 00:52:19;;;;;;;26.95;2.80;;;20.60;34.80;;;;;;5068989;28;20073;-66
2022/01/22 00:54:46;;;;;;;14.48;2.35;;;20.60;34.70;;;;;;5068632;28;20069;-64
2022/01/22 00:57:12;;;;;;;21.80;2.25;;;20.40;34.70;;;;;;5072316;28;20138;-65
2022/01/22 00:59:39;;;;;;;14.00;3.08;;;20.30;35.30;;;;;;5070166;28;20108;-64
2022/01/22 01:02:06;;;;;;;8.23;2.40;;;20.30;35.50;;;;;;5070321;28;20135;-66
2022/01/22 01:04:35;;;;;;;12.32;3.20;;;20.20;35.80;;;;;;5069479;28;20164;-64
2022/01/22 01:07:02;;;;;;;18.95;3.30;;;20.10;35.20;;;;;;5072122;28;20127;-60
2022/01/22 01:09:29;;;;;;;16.10;3.00;;;20.10;35.20;;;;;;5070128;28;20069;-64
2022/01/22 01:12:00;;;;;;;13.27;2.85;;;20.00;35.10;;;;;;5069696;28;20122;-63
2022/01/22 01:14:35;;;;;;;13.05;2.40;;;20.00;35.10;;;;;;5069510;28;20523;-64
2022/01/22 01:35:48;;;;;;;9.85;1.90;;;19.50;34.10;;;;;;5069973;28;20065;-63
2022/01/22 01:38:19;;;;;;;8.85;1.67;;;19.50;34.40;;;;;;5068810;28;20077;-64
2022/01/22 01:40:53;;;;;;;9.85;1.70;;;19.50;34.50;;;;;;5069935;28;20093;-62
2022/01/22 01:43:25;;;;;;;19.75;2.22;;;19.50;34.60;;;;;;5068525;28;20472;-62
2022/01/22 01:45:52;;;;;;;30.30;2.75;;;19.50;34.80;;;;;;5074654;28;20075;-62
2022/01/22 01:48:24;;;;;;;21.25;3.42;;;19.40;35.40;;;;;;5067129;28;20519;-62
2022/01/22 01:50:50;;;;;;;25.45;2.85;;;19.40;36.00;;;;;;5066244;28;20100;-62
2022/01/22 01:53:32;;;;;;;26.13;2.72;;;19.30;36.30;;;;;;5067832;28;20073;-64
2022/01/22 01:58:28;;;;;;;14.18;1.92;;;19.20;37.00;;;;;;5073119;28;20091;-60
2022/01/22 02:00:55;;;;;;;15.15;2.50;;;19.10;37.20;;;;;;5072500;28;20066;-63
2022/01/22 02:03:23;;;;;;;12.98;2.35;;;19.00;37.30;;;;;;5069747;28;20140;-60
2022/01/22 02:05:51;;;;;;;17.25;3.00;;;19.00;37.60;;;;;;5067392;28;20150;-64
2022/01/22 02:08:19;;;;;;;16.40;2.33;;;18.90;37.70;;;;;;5070029;28;20081;-64
2022/01/22 02:10:55;;;;;;;35.33;3.50;;;18.90;38.00;;;;;;5069413;28;20065;-63
2022/01/22 02:13:40;;;;;;;19.52;2.58;;;18.80;38.20;;;;;;5068549;28;20115;-63
2022/01/22 02:24:50;;;;;;;23.08;2.47;;;18.60;38.60;;;;;;5069478;28;20563;-62
2022/01/22 02:27:17;;;;;;;24.27;2.53;;;18.60;38.80;;;;;;5074139;28;20081;-62
2022/01/22 02:29:44;;;;;;;22.35;2.40;;;18.50;38.90;;;;;;5069726;28;20069;-62
2022/01/22 02:35:11;;;;;;;17.50;2.55;;;18.40;39.40;;;;;;5068329;28;20131;-65
2022/01/22 02:37:43;;;;;;;22.52;2.00;;;18.30;39.50;;;;;;5069492;28;20073;-64
2022/01/22 02:40:33;;;;;;;15.85;1.85;;;18.20;39.80;;;;;;5070523;28;20540;-60
2022/01/22 02:43:00;;;;;;;19.30;2.28;;;18.20;39.50;;;;;;5069382;28;20077;-63
2022/01/22 02:45:27;;;;;;;29.17;12.52;;;18.10;39.70;;;;;;5069864;28;20134;-62
2022/01/22 02:47:54;;;;;;;16.00;7.80;;;18.10;40.70;;;;;;5067574;28;20097;-64
2022/01/22 02:50:21;;;;;;;26.48;9.55;;;18.10;41.00;;;;;;5068510;28;20076;-63
2022/01/22 02:52:47;;;;;;;19.33;3.28;;;18.00;40.60;;;;;;5072371;28;20156;-61
2022/01/22 02:55:15;;;;;;;24.80;2.70;;;17.80;40.10;;;;;;5069772;28;20084;-63
2022/01/22 02:57:43;;;;;;;12.15;1.95;;;17.70;40.40;;;;;;5069546;28;20164;-58
2022/01/22 03:00:15;;;;;;;19.17;2.60;;;17.70;40.60;;;;;;5066910;28;20142;-61
2022/01/22 03:02:42;;;;;;;19.58;2.55;;;17.60;40.60;;;;;;5068655;28;20089;-65
2022/01/22 03:05:09;;;;;;;28.00;3.05;;;17.50;40.80;;;;;;5070499;28;20085;-64
2022/01/22 03:07:38;;;;;;;19.92;2.22;;;17.50;40.50;;;;;;5068170;28;20123;-63
2022/01/22 03:10:07;;;;;;;12.70;2.00;;;17.40;40.70;;;;;;5068668;28;20118;-65
2022/01/22 03:27:12;;;;;;;22.10;3.60;;;17.10;41.40;;;;;;5069993;28;20065;-62
2022/01/22 03:28:52;;;;;;;15.30;3.58;;;17.10;42.50;;;;;;5069336;28;20100;-63
2022/01/22 03:31:18;;;;;;;24.15;5.72;;;17.10;42.30;;;;;;5068236;28;20077;-64
2022/01/22 03:33:45;;;;;;;23.88;4.72;;;17.10;41.20;;;;;;5068484;28;20571;-62
2022/01/22 03:36:11;;;;;;;17.00;4.47;;;17.10;41.30;;;;;;5068080;28;20097;-61
2022/01/22 03:38:38;;;;;;;35.35;5.45;;;17.10;41.10;;;;;;5067444;28;20089;-61
2022/01/22 03:41:04;;;;;;;28.73;8.43;;;17.10;41.40;;;;;;5069697;28;20081;-62
2022/01/22 03:43:31;;;;;;;16.50;7.22;;;17.10;39.50;;;;;;5070151;28;20073;-63
2022/01/22 03:45:57;;;;;;;37.10;7.55;;;17.10;38.40;;;;;;5068497;28;20474;-61
2022/01/22 03:48:24;;;;;;;27.95;8.38;;;17.20;38.10;;;;;;5068726;28;20089;-63
2022/01/22 03:50:50;;;;;;;30.88;10.60;;;17.20;37.70;;;;;;5068029;28;20450;-63
2022/01/22 03:53:17;;;;;;;38.42;16.92;;;17.30;37.70;;;;;;5068091;28;20091;-62
2022/01/22 03:58:26;;;;;;;29.40;7.18;;;17.30;37.70;;;;;;5069064;28;20091;-59
2022/01/22 04:01:05;;;;;;;;;;;17.40;37.90;;;;;;5068682;28;20130;-59
2022/01/22 04:03:37;;;;;;;29.38;5.90;;;17.50;37.90;;;;;;5072032;28;20071;-61
2022/01/22 04:08:30;;;;;;;26.10;4.35;;;17.60;38.30;;;;;;5071801;28;20450;-59
2022/01/22 04:10:56;;;;;;;13.25;2.33;;;17.60;38.60;;;;;;5071705;28;20083;-55
2022/01/22 04:13:30;;;;;;;15.00;2.35;;;17.60;39.00;;;;;;5071550;28;20073;-61
2022/01/22 04:15:57;;;;;;;24.30;3.53;;;17.60;39.50;;;;;;5072442;28;20164;-62
2022/01/22 04:26:59;;;;;;;16.65;2.38;;;17.50;41.50;;;;;;5071667;28;20155;-56
2022/01/22 04:29:27;;;;;;;28.63;2.50;;;17.40;42.20;;;;;;5072004;28;20481;-59
2022/01/22 04:31:54;;;;;;;22.48;2.45;;;17.40;42.80;;;;;;5071207;28;20080;-62
2022/01/22 04:34:20;;;;;;;17.00;2.70;;;17.40;43.70;;;;;;5071988;28;20606;-61
2022/01/22 04:36:47;;;;;;;29.05;3.17;;;17.50;43.10;;;;;;5072895;28;20539;-58
2022/01/22 04:39:13;;;;;;;34.28;2.75;;;17.50;43.10;;;;;;5070161;28;20073;-56
2022/01/22 04:41:40;;;;;;;23.60;2.70;;;17.50;43.10;;;;;;5072049;28;20111;-60
2022/01/22 04:44:07;;;;;;;22.75;2.85;;;17.50;43.10;;;;;;5054961;28;20415;-58
2022/01/22 04:46:49;;;;;;;33.17;2.08;;;17.60;43.40;;;;;;5074190;28;20077;-59
2022/01/22 04:57:23;;;;;;;40.75;2.92;;;17.60;44.20;;;;;;5072637;28;20492;-59
2022/01/22 04:59:49;;;;;;;24.73;2.63;;;17.60;44.20;;;;;;5070551;28;20104;-62
2022/01/22 05:02:15;;;;;;;31.58;2.33;;;17.60;44.30;;;;;;5070516;28;20458;-61
2022/01/22 05:04:42;;;;;;;31.92;2.53;;;17.60;44.20;;;;;;5054497;28;20077;-61
2022/01/22 05:07:09;;;;;;;29.50;3.05;;;17.60;44.20;;;;;;5072292;28;20123;-63
2022/01/22 05:09:36;;;;;;;34.72;2.65;;;17.60;44.10;;;;;;5069843;28;20127;-63
2022/01/22 05:12:04;;;;;;;34.45;2.75;;;17.60;44.00;;;;;;5073030;28;20157;-59
2022/01/22 05:14:31;;;;;;;50.03;3.30;;;17.60;43.90;;;;;;5070360;28;20529;-60
2022/01/22 05:16:59;;;;;;;51.42;3.63;;;17.60;43.70;;;;;;5079855;28;20072;-62
2022/01/22 05:19:44;;;;;;;27.25;2.78;;;17.70;43.50;;;;;;5070695;28;20530;-61
2022/01/22 05:22:28;;;;;;;31.42;2.83;;;17.70;43.20;;;;;;5069785;28;20514;-59
2022/01/22 05:24:59;;;;;;;31.67;2.17;;;17.70;43.20;;;;;;5069570;28;20450;-62
2022/01/22 05:30:36;;;;;;;17.90;2.13;;;17.80;43.20;;;;;;5069708;28;20103;-59
2022/01/22 05:33:13;;;;;;;30.90;2.22;;;17.80;43.10;;;;;;5071046;28;20100;-61
2022/01/22 05:38:30;;;;;;;25.35;2.63;;;17.80;42.90;;;;;;5069785;28;20138;-62
2022/01/22 05:40:56;;;;;;;22.60;2.20;;;17.90;43.10;;;;;;5070256;28;20113;-59
2022/01/22 05:43:23;;;;;;;18.40;2.13;;;17.80;43.30;;;;;;5069635;28;20180;-59
2022/01/22 05:45:49;;;;;;;21.05;2.05;;;17.80;43.50;;;;;;5070790;28;20073;-57
2022/01/22 05:48:15;;;;;;;;;;;17.80;43.60;;;;;;5070283;28;20559;-60
2022/01/22 05:51:03;;;;;;;20.98;2.13;;;17.70;43.90;;;;;;5070713;28;20454;-60
2022/01/22 05:53:41;;;;;;;23.67;2.25;;;17.70;44.30;;;;;;5072289;28;20069;-59
2022/01/22 06:01:20;;;;;;;17.60;2.45;;;17.60;45.30;;;;;;5070658;28;20333;-62
2022/01/22 06:03:47;;;;;;;23.60;2.30;;;17.60;45.60;;;;;;5069856;28;20089;-63
2022/01/22 06:06:14;;;;;;;14.27;2.28;;;17.50;45.70;;;;;;5072602;28;20107;-63
2022/01/22 06:08:53;;;;;;;16.48;1.75;;;17.50;45.90;;;;;;5069203;28;20513;-59
2022/01/22 06:11:26;;;;;;;15.45;2.05;;;17.40;45.90;;;;;;5069114;28;20077;-61
2022/01/22 06:13:52;;;;;;;13.38;2.13;;;17.40;46.00;;;;;;5069146;28;20080;-61
2022/01/22 06:16:24;;;;;;;15.90;1.92;;;17.30;46.00;;;;;;5069121;28;20077;-60
2022/01/22 06:18:51;;;;;;;19.75;1.80;;;17.30;46.10;;;;;;5071050;28;20123;-60
2022/01/22 06:21:17;;;;;;;13.75;2.17;;;17.20;45.90;;;;;;5068630;28;20081;-59
2022/01/22 06:23:46;;;;;;;;;;;17.20;45.40;;;;;;5070118;28;20619;-58
2022/01/22 06:26:14;;;;;;;5.75;1.00;;;17.10;45.30;;;;;;5068791;28;20046;-62
2022/01/22 06:28:41;;;;;;;12.70;1.00;;;17.10;45.20;;;;;;5052935;28;20093;-59
2022/01/22 06:31:08;;;;;;;10.85;1.08;;;17.00;45.10;;;;;;5069748;28;20069;-59
2022/01/22 06:33:35;;;;;;;10.45;0.98;;;17.00;45.00;;;;;;5070006;28;20105;-62
2022/01/22 06:36:01;;;;;;;10.68;1.10;;;17.00;44.90;;;;;;5068896;28;20069;-62
2022/01/22 06:38:27;;;;;;;5.35;1.23;;;16.90;44.60;;;;;;5068915;28;20077;-61
2022/01/22 06:43:38;;;;;;;5.80;0.90;;;16.90;44.70;;;;;;5069685;28;20152;-60
2022/01/22 06:46:05;;;;;;;8.20;1.17;;;16.80;44.80;;;;;;5068281;28;20073;-61
2022/01/22 06:48:31;;;;;;;;;;;16.80;45.10;;;;;;5052253;28;20124;-58
2022/01/22 06:50:58;;;;;;;4.85;1.05;;;16.70;45.10;;;;;;5070116;28;19979;-61
2022/01/22 06:53:26;;;;;;;6.75;1.15;;;16.70;45.00;;;;;;5069446;28;20477;-54
2022/01/22 06:55:59;;;;;;;10.38;0.77;;;16.70;45.00;;;;;;5068287;28;20103;-59
2022/01/22 06:58:26;;;;;;;4.95;0.68;;;16.70;45.00;;;;;;5068223;28;20081;-61
2022/01/22 07:00:52;;;;;;;;;;;16.70;44.90;;;;;;5068864;28;20160;-58
2022/01/22 07:03:19;;;;;;;8.25;0.90;;;16.70;44.80;;;;;;5051761;28;19982;-56
2022/01/22 07:05:45;;;;;;;14.90;0.95;;;16.70;45.00;;;;;;5069296;28;20092;-61
2022/01/22 07:08:12;;;;;;;4.30;1.10;;;16.70;45.00;;;;;;5071963;28;20089;-61
2022/01/22 07:10:38;;;;;;;4.13;0.90;;;16.60;45.20;;;;;;5067152;28;20096;-60
2022/01/22 07:13:05;;;;;;;6.25;0.70;;;16.60;45.30;;;;;;5070766;28;20143;-58
2022/01/22 07:15:31;;;;;;;;;;;16.50;45.50;;;;;;5068893;28;20093;-64
2022/01/22 07:17:57;;;;;;;6.47;0.80;;;16.50;45.60;;;;;;5069357;28;19964;-61
2022/01/22 07:20:29;;;;;;;6.20;0.90;;;16.40;45.80;;;;;;5069556;28;20084;-61
2022/01/22 07:25:27;;;;;;;8.65;0.70;;;16.40;46.00;;;;;;5071747;28;20073;-63
2022/01/22 07:27:53;;;;;;;6.80;0.80;;;16.40;46.20;;;;;;5083477;28;20175;-56
2022/01/22 07:30:20;;;;;;;9.02;0.73;;;16.40;46.20;;;;;;5065204;28;20097;-60
2022/01/22 07:32:46;;;;;;;2.88;0.73;;;16.30;46.10;;;;;;5068470;28;20109;-60
2022/01/22 07:35:17;;;;;;;3.22;0.60;;;16.40;46.10;;;;;;5071572;28;20074;-61
2022/01/22 07:37:44;;;;;;;9.68;0.80;;;16.40;46.00;;;;;;5071644;28;20179;-58
2022/01/22 07:40:11;;;;;;;3.40;0.60;;;16.40;46.00;;;;;;5075342;28;20565;-58
2022/01/22 07:42:39;;;;;;;8.88;1.10;;;16.40;46.00;;;;;;5073407;28;20167;-60
2022/01/22 07:45:08;;;;;;;13.90;2.78;;;16.50;46.20;;;;;;5072055;28;20092;-59
2022/01/22 07:47:35;;;;;;;13.50;3.88;;;16.50;46.10;;;;;;5072657;28;20096;-61
2022/01/22 07:50:01;;;;;;;14.38;3.38;;;16.40;46.20;;;;;;5075392;28;20114;-60
2022/01/22 07:52:28;;;;;;;;;;;16.40;46.80;;;;;;5077355;28;20081;-61
2022/01/22 07:54:54;;;;;;;6.15;1.60;;;16.30;47.10;;;;;;5074493;28;19957;-59
2022/01/22 07:57:20;;;;;;;9.98;2.13;;;16.30;47.70;;;;;;5087904;28;20132;-59
2022/01/22 07:59:46;;;;;;;;;;;16.20;48.00;;;;;;5075531;28;20193;-60
2022/01/22 08:02:14;;;;;;;7.22;1.27;;;16.10;48.30;;;;;;5073791;28;20071;-60
2022/01/22 08:04:41;;;;;;;4.80;1.10;;;16.10;48.70;;;;;;5053784;28;20124;-60
2022/01/22 08:07:08;;;;;;;10.18;1.52;;;16.00;48.90;;;;;;5073075;28;20088;-57
2022/01/22 08:09:35;;;;;;;9.82;1.70;;;16.00;49.20;;;;;;5073190;28;20069;-60
2022/01/22 08:12:01;;;;;;;;;;;15.90;49.40;;;;;;5053911;28;20116;-60
2022/01/22 08:14:28;;;;;;;8.93;1.25;;;15.80;49.70;;;;;;5072355;28;19963;-60
2022/01/22 08:16:54;;;;;;;10.95;1.48;;;15.80;49.90;;;;;;5070206;28;20091;-64
2022/01/22 08:19:20;;;;;;;;;;;15.70;50.00;;;;;;5076020;28;20084;-63
2022/01/22 08:21:47;;;;;;;13.02;1.40;;;15.60;50.00;;;;;;5070827;28;19972;-60
2022/01/22 08:24:15;;;;;;;11.82;1.67;;;15.50;50.10;;;;;;5072301;28;20114;-64
2022/01/22 08:26:49;;;;;;;11.55;1.92;;;15.50;50.20;;;;;;5073604;28;20080;-60
2022/01/22 08:29:16;;;;;;;8.73;2.60;;;15.50;50.20;;;;;;5072539;28;20072;-59
2022/01/22 08:32:03;;;;;;;;;;;15.50;50.30;;;;;;5071360;28;20088;-59
2022/01/22 08:37:15;;;;;;;8.55;1.80;;;15.40;50.50;;;;;;5068667;28;20593;-62
2022/01/22 08:39:43;;;;;;;;;;;15.40;50.60;;;;;;5071584;28;20088;-60
2022/01/22 08:42:09;;;;;;;14.65;2.50;;;15.40;50.60;;;;;;5071313;28;20059;-61
2022/01/22 08:44:36;;;;;;;9.15;2.90;;;15.40;50.70;;;;;;5069800;28;20088;-60
2022/01/22 08:47:02;;;;;;;;;;;15.30;50.80;;;;;;5074933;28;20093;-62
2022/01/22 08:49:28;;;;;;;6.22;1.42;;;15.40;50.80;;;;;;5071939;28;20453;-60
2022/01/22 08:51:54;;;;;;;;;;;15.40;50.80;;;;;;5075459;28;20065;-61
2022/01/22 08:54:21;;;;;;;8.30;1.55;;;15.40;50.90;;;;;;5069419;28;20048;-62
2022/01/22 08:56:47;;;;;;;3.28;1.27;;;15.30;51.00;;;;;;5069009;28;20081;-59
2022/01/22 08:59:14;;;;;;;4.95;1.35;;;15.30;51.90;;;;;;5067717;28;20557;-59
2022/01/22 09:01:43;;;;;;;7.90;1.40;;;15.30;51.50;;;;;;5054540;28;20116;-60
2022/01/22 09:04:10;;;;;;;5.28;1.25;;;15.30;52.30;;;;;;5073829;28;20077;-61
2022/01/22 09:06:37;;;;;;;8.18;1.45;;;15.30;51.80;;;;;;5056711;28;20073;-62
2022/01/22 09:09:11;;;;;;;6.80;1.00;;;15.20;52.00;;;;;;5053191;28;20089;-57
2022/01/22 09:11:43;;;;;;;5.60;1.10;;;15.20;52.40;;;;;;5065693;28;20064;-58
2022/01/22 09:14:12;;;;;;;8.15;0.85;;;15.20;52.50;;;;;;5052468;28;20162;-57
2022/01/22 09:16:40;;;;;;;7.28;0.80;;;15.20;52.50;;;;;;5070368;28;20069;-61
2022/01/22 09:19:10;;;;;;;7.25;0.95;;;15.20;52.50;;;;;;5058141;28;20077;-61
2022/01/22 09:21:41;;;;;;;15.93;8.98;;;15.20;52.20;;;;;;5074408;28;20084;-59
2022/01/22 09:24:09;;;;;;;8.43;1.55;;;15.20;52.00;;;;;;5053725;28;20081;-62
2022/01/22 09:26:36;;;;;;;2.08;0.65;;;15.20;51.70;;;;;;5070779;28;20064;-60
2022/01/22 09:29:03;;;;;;;5.55;0.70;;;15.30;51.00;;;;;;5070814;28;20068;-62
2022/01/22 09:31:31;;;;;;;9.80;0.70;;;15.30;50.60;;;;;;5073326;28;20438;-58
2022/01/22 09:33:59;;;;;;;8.70;1.20;;;15.30;50.40;;;;;;5052481;28;20199;-59
2022/01/22 09:36:28;;;;;;;5.25;0.70;;;15.30;49.90;;;;;;5071688;28;20069;-59
2022/01/22 09:38:56;;;;;;;9.60;0.90;;;15.30;49.80;;;;;;5067188;28;20096;-59
2022/01/22 09:41:24;;;;;;;10.57;0.80;;;15.40;49.60;;;;;;5067582;28;20077;-60
2022/01/22 09:43:52;;;;;;;13.35;1.20;;;15.30;49.30;;;;;;5053713;28;20084;-59
2022/01/22 09:46:21;;;;;;;10.80;1.25;;;15.30;49.10;;;;;;5073000;28;20442;-60
2022/01/22 09:48:50;;;;;;;5.57;0.90;;;15.30;48.90;;;;;;5060745;28;20097;-62
2022/01/22 09:51:17;;;;;;;9.48;0.95;;;15.40;48.70;;;;;;5053214;28;20077;-58
2022/01/22 09:53:44;;;;;;;10.18;1.10;;;15.30;48.50;;;;;;5069738;28;20076;-54
2022/01/22 09:56:12;;;;;;;14.18;0.90;;;15.30;48.60;;;;;;5073343;28;20073;-59
2022/01/22 09:58:39;;;;;;;6.68;0.50;;;15.30;48.40;;;;;;5068954;28;20100;-59
2022/01/22 10:01:28;;;;;;;3.85;0.65;;;15.30;48.40;;;;;;5070125;28;20268;-57
2022/01/22 10:03:58;;;;;;;5.90;0.90;;;15.30;48.20;;;;;;5066395;28;20069;-60
2022/01/22 10:06:31;;;;;;;3.40;0.60;;;15.30;48.10;;;;;;5070660;28;20077;-61
2022/01/22 10:09:14;;;;;;;7.55;0.80;;;15.30;47.90;;;;;;5069129;28;20431;-60
2022/01/22 10:11:42;;;;;;;8.60;1.00;;;15.30;48.00;;;;;;5070893;28;20518;-61
2022/01/22 10:14:09;;;;;;;10.90;0.73;;;15.30;48.20;;;;;;5070346;28;20081;-61
2022/01/22 10:16:38;;;;;;;4.85;0.50;;;15.30;48.30;;;;;;5070049;28;20141;-63
2022/01/22 10:19:16;;;;;;;8.60;0.60;;;15.30;48.50;;;;;;5068004;28;20073;-64
2022/01/22 10:21:58;;;;;;;3.10;0.50;;;15.30;48.50;;;;;;5069112;28;20107;-58
2022/01/22 10:24:45;;;;;;;9.50;0.80;;;15.20;48.80;;;;;;5072208;28;20172;-60
2022/01/22 10:27:44;;;;;;;13.30;0.93;;;15.20;48.90;;;;;;5087138;28;20180;-63
2022/01/22 10:30:15;;;;;;;7.68;0.90;;;15.20;49.10;;;;;;5069941;28;20087;-61
2022/01/22 10:33:04;;;;;;;11.65;0.82;;;15.20;49.20;;;;;;5066063;28;20159;-60
2022/01/22 10:35:32;;;;;;;8.35;1.30;;;15.20;49.50;;;;;;5053013;28;20187;-59
2022/01/22 10:38:03;;;;;;;14.73;1.27;;;15.20;49.70;;;;;;5069350;28;20099;-62
2022/01/22 10:40:38;;;;;;;6.40;1.05;;;15.10;50.00;;;;;;5067362;28;20078;-62
2022/01/22 10:43:34;;;;;;;7.82;0.95;;;15.10;50.20;;;;;;5066475;28;20080;-62
2022/01/22 10:48:57;;;;;;;10.60;1.25;;;15.10;50.60;;;;;;5069792;28;20691;-62
2022/01/22 10:51:25;;;;;;;21.35;1.67;;;15.00;50.70;;;;;;5053524;28;20617;-62
2022/01/22 10:53:57;;;;;;;9.40;1.10;;;15.00;50.80;;;;;;5052672;28;20118;-59
2022/01/22 10:56:26;;;;;;;14.60;1.65;;;15.00;51.00;;;;;;5068764;28;20247;-56
2022/01/22 10:58:55;;;;;;;13.43;1.10;;;15.00;51.00;;;;;;5072035;28;20535;-62
2022/01/22 11:01:40;;;;;;;8.00;1.20;;;14.90;51.00;;;;;;5049999;28;20130;-58
2022/01/22 11:04:09;;;;;;;16.48;2.00;;;14.90;51.70;;;;;;5065908;28;20096;-59
2022/01/22 11:06:36;;;;;;;27.65;1.77;;;14.90;51.20;;;;;;5072756;28;20080;-59
2022/01/22 11:09:05;;;;;;;11.65;1.60;;;14.90;51.30;;;;;;5071543;28;20134;-59
2022/01/22 11:11:36;;;;;;;10.32;1.48;;;14.80;51.10;;;;;;5053008;28;20072;-60
2022/01/22 11:14:04;;;;;;;10.35;1.10;;;14.80;51.30;;;;;;5066269;28;20160;-61
2022/01/22 11:16:32;;;;;;;8.60;1.10;;;14.80;51.20;;;;;;5066725;28;20524;-58
2022/01/22 11:18:59;;;;;;;12.40;1.42;;;14.80;51.10;;;;;;5049473;28;20080;-60
2022/01/22 11:21:26;;;;;;;15.55;1.42;;;14.80;51.10;;;;;;5054547;28;20147;-59
2022/01/22 11:23:53;;;;;;;19.20;1.35;;;14.80;51.10;;;;;;5061834;28;20092;-62
2022/01/22 11:26:20;;;;;;;14.20;1.58;;;14.70;50.80;;;;;;5071700;28;20554;-63
2022/01/22 11:28:52;;;;;;;11.48;1.23;;;14.70;50.60;;;;;;5069790;28;20121;-61
2022/01/22 11:31:20;;;;;;;22.65;1.58;;;14.70;50.50;;;;;;5047899;28;20077;-59
2022/01/22 11:33:48;;;;;;;10.60;1.23;;;14.70;50.30;;;;;;5069422;28;20184;-63
2022/01/22 11:36:14;;;;;;;5.90;1.20;;;14.70;50.00;;;;;;5066140;28;20080;-62
2022/01/22 11:38:48;;;;;;;11.13;0.90;;;14.70;50.00;;;;;;5066526;28;20092;-61
2022/01/22 11:41:20;;;;;;;12.73;1.40;;;14.70;49.90;;;;;;5066485;28;20606;-61
2022/01/22 11:44:02;;;;;;;20.33;1.65;;;14.70;49.80;;;;;;5050410;28;20084;-60
2022/01/22 11:46:34;;;;;;;19.38;2.15;;;14.70;49.90;;;;;;5070772;28;20156;-58
2022/01/22 11:49:42;;;;;;;11.02;1.35;;;14.60;49.80;;;;;;5034918;28;20096;-59
2022/01/22 11:52:08;;;;;;;12.48;1.17;;;14.60;49.70;;;;;;4972891;28;20144;-57
2022/01/22 11:54:49;;;;;;;;;;;14.60;49.50;;;;;;4985677;28;20086;-57
2022/01/22 11:57:16;;;;;;;14.20;1.10;;;14.60;49.40;;;;;;4972261;28;19958;-58
2022/01/22 11:59:46;;;;;;;11.93;1.60;;;14.70;49.20;;;;;;4971333;28;20496;-57
2022/01/22 12:02:17;;;;;;;14.90;1.05;;;14.60;48.80;;;;;;4990656;28;20130;-58
2022/01/22 12:04:45;;;;;;;14.18;1.00;;;14.70;49.00;;;;;;4972154;28;20560;-59
2022/01/22 12:07:13;;;;;;;19.17;1.33;;;14.60;48.90;;;;;;4989513;28;20177;-59
2022/01/22 12:15:16;;;;;;;13.35;1.30;;;14.60;48.00;;;;;;4990306;28;20564;-58
2022/01/22 12:17:57;;;;;;;16.00;1.52;;;14.50;47.70;;;;;;4974192;28;20464;-60
2022/01/22 12:22:59;;;;;;;15.98;1.35;;;14.50;47.20;;;;;;4991407;28;20078;-57
2022/01/22 12:25:28;;;;;;;;;;;14.50;47.10;;;;;;4992313;28;20189;-61
2022/01/22 12:27:55;;;;;;;14.55;0.88;;;14.50;46.80;;;;;;5045277;28;20433;-63
2022/01/22 12:30:39;;;;;;;10.35;1.02;;;14.50;46.80;;;;;;5069943;28;20187;-55
2022/01/22 12:33:13;;;;;;;15.95;1.63;;;14.40;46.40;;;;;;5070095;28;20109;-60
2022/01/22 12:35:56;;;;;;;10.50;1.05;;;14.40;46.50;;;;;;5055842;28;20080;-61
2022/01/22 12:38:48;;;;;;;26.48;1.42;;;14.40;46.50;;;;;;5071413;28;20085;-59
2022/01/22 12:41:31;;;;;;;11.45;0.98;;;14.30;46.50;;;;;;5042879;28;20081;-60
2022/01/22 12:46:53;;;;;;;12.45;1.13;;;14.30;46.00;;;;;;5070589;28;20070;-62
2022/01/22 12:49:22;;;;;;;14.25;1.95;;;14.30;46.00;;;;;;5072187;28;20076;-60
2022/01/22 12:52:10;;;;;;;7.28;0.70;;;14.30;45.90;;;;;;5054121;28;20078;-53
2022/01/22 12:54:38;;;;;;;;;;;14.30;45.70;;;;;;5073596;28;20477;-60
2022/01/22 12:57:07;;;;;;;19.15;1.00;;;14.30;45.70;;;;;;5053088;28;20384;-59
2022/01/22 13:00:06;;;;;;;6.75;0.82;;;14.20;45.80;;;;;;5072938;28;20518;-58
2022/01/22 13:02:59;;;;;;;10.30;1.55;;;14.30;45.80;;;;;;5073080;28;20097;-59
2022/01/22 13:05:28;;;;;;;6.88;0.90;;;14.20;45.80;;;;;;5065267;28;20097;-62
2022/01/22 13:08:00;;;;;;;5.43;0.98;;;14.20;45.80;;;;;;5070070;28;20116;-62
2022/01/22 13:10:33;;;;;;;10.65;1.00;;;14.20;45.70;;;;;;5054746;28;20096;-60
2022/01/22 13:13:01;;;;;;;2.95;0.75;;;14.30;45.70;;;;;;5070167;28;20529;-57
2022/01/22 13:15:27;;;;;;;6.03;1.02;;;14.30;45.40;;;;;;5074175;28;20156;-59
2022/01/22 13:17:59;;;;;;;7.28;0.80;;;14.30;45.40;;;;;;5071272;28;20069;-59
2022/01/22 13:20:28;;;;;;;3.58;0.93;;;14.30;45.30;;;;;;5070706;28;20074;-59
2022/01/22 13:22:56;;;;;;;5.43;0.70;;;14.30;45.20;;;;;;5057027;28;20139;-62
2022/01/22 13:25:23;;;;;;;7.10;0.85;;;14.20;45.00;;;;;;5074598;28;20073;-58
2022/01/22 13:28:10;;;;;;;8.85;0.90;;;14.30;45.00;;;;;;5068971;28;20093;-62
2022/01/22 13:30:43;;;;;;;11.63;1.40;;;14.30;44.90;;;;;;5072122;28;20462;-61
2022/01/22 13:33:34;;;;;;;7.00;0.90;;;14.20;44.70;;;;;;5056052;28;20145;-61
2022/01/22 13:36:30;;;;;;;12.77;1.48;;;14.20;44.80;;;;;;5036179;28;20689;-62
2022/01/22 13:39:22;;;;;;;4.77;0.77;;;14.20;44.80;;;;;;5032371;28;20093;-64
2022/01/22 13:45:18;;;;;;;7.60;0.90;;;14.10;44.50;;;;;;5031137;28;20120;-58
2022/01/22 13:47:53;;;;;;;9.23;1.20;;;14.10;44.20;;;;;;5034396;28;20085;-59
2022/01/22 13:50:21;;;;;;;16.67;0.90;;;14.10;44.20;;;;;;5027760;28;20148;-59
2022/01/22 13:52:48;;;;;;;5.72;0.70;;;14.10;44.70;;;;;;5031304;28;20078;-60
2022/01/22 13:55:15;;;;;;;8.23;0.70;;;14.00;43.90;;;;;;5029753;28;20074;-59
2022/01/22 13:57:44;;;;;;;8.93;1.30;;;14.10;43.90;;;;;;5031585;28;20077;-59
2022/01/22 14:00:16;;;;;;;9.45;0.68;;;14.10;43.70;;;;;;5027628;28;20101;-62
2022/01/22 14:05:31;;;;;;;9.45;0.68;;;14.10;43.40;;;;;;5032190;28;20491;-58
2022/01/22 14:08:06;;;;;;;11.60;1.08;;;14.10;43.20;;;;;;5030045;28;20090;-59
2022/01/22 14:10:34;;;;;;;10.48;1.50;;;14.10;43.10;;;;;;5029148;28;20073;-62
2022/01/22 14:13:10;;;;;;;8.07;1.15;;;14.10;43.00;;;;;;5026720;28;20117;-63
2022/01/22 14:15:45;;;;;;;10.27;0.85;;;14.10;42.90;;;;;;5032812;28;20444;-60
2022/01/22 14:18:16;;;;;;;16.92;1.40;;;14.10;43.10;;;;;;5033923;28;20081;-61
2022/01/22 14:20:46;;;;;;;13.45;1.55;;;14.10;43.10;;;;;;5033782;28;20082;-59
2022/01/22 14:23:36;;;;;;;12.15;1.25;;;14.10;42.90;;;;;;5031313;28;20172;-58
2022/01/22 14:26:31;;;;;;;17.90;1.15;;;14.00;43.10;;;;;;5025869;28;20499;-60
2022/01/22 14:29:07;;;;;;;10.50;1.10;;;14.00;43.10;;;;;;5030365;28;20169;-60
2022/01/22 14:31:53;;;;;;;14.10;1.10;;;14.00;43.10;;;;;;5031965;28;20074;-62
2022/01/22 14:34:34;;;;;;;9.93;0.95;;;13.90;43.30;;;;;;5031327;28;20555;-61
2022/01/22 14:37:05;;;;;;;7.47;1.00;;;13.90;43.40;;;;;;5030550;28;20085;-60
2022/01/22 14:45:32;;;;;;;12.80;1.23;;;13.90;43.10;;;;;;5030627;28;20136;-61
2022/01/22 14:48:01;;;;;;;13.75;1.48;;;14.00;42.90;;;;;;5031983;28;20101;-60
2022/01/22 14:50:29;;;;;;;7.97;1.35;;;13.90;42.60;;;;;;5030618;28;20074;-62
2022/01/22 14:53:01;;;;;;;3.72;0.90;;;14.00;42.40;;;;;;5026149;28;20074;-61
2022/01/22 14:55:29;;;;;;;11.70;1.48;;;14.10;42.20;;;;;;5028262;28;20117;-59
2022/01/22 14:57:56;;;;;;;23.13;1.30;;;14.10;42.20;;;;;;5029082;28;20505;-62